Main page
METAR-TAF:

METAR-TAF

Airports :

Halmstad Airport

Halmstad, Sweden

latitude: 56-41N, longitude: 012-50E, elevation: 30 m

Current weather observation

The report was made 30 minutes ago, at 09:50 UTC
Wind 7 kt from the West/Southwest, varying between South/Southwest and West/Northwest
Temperature 19°C
Humidity 78%
Pressure 1012 hPa
Visibility 10 km or more
Scattered clouds at a height of 3800 ft

METAR: ESMT 170950Z 25007KT 210V300 9999 SCT038 19/15 Q1012

Time: 12:20 (10:20 UTC)

Forecast

The report was made 2 hours and 21 minutes ago, at 07:59 UTC
Forecast valid from 17 at 09 UTC to 17 at 15 UTC
Wind 8 kt from the West/Southwest
Visibility 10 km or more
Scattered clouds at a height of 2000 ft
Temporary
from 17 at 09 UTC to 17 at 15 UTC
Visibility: 4000 m
Broken clouds at a height of 1200 ft
Scattered clouds at a height of 2000 ft, Cumulonimbus.
rain showers,

TAF: ESMT 170759Z 1709/1715 25008KT 9999 SCT020 TEMPO 1709/1715 4000 SHRA BKN012 SCT020CB

Weather observations and forecasts of more than 4000 airports (METAR and TAF reports).

The available stations are represented by yellow and red dots on the map.

Hover mouse over dot to see the name of the station.

Then click to see weather observations and forecasts.

To change the map : click on the green buttons with a black cross to zoom in, on the green button with a dash to zoom out, or on the green arrows for adjacent maps.


METAR-TAF: